createdAt,value
2022-12-17T00:00:24.483Z,-9.22
2022-12-17T00:05:42.496Z,-9.23
2022-12-17T00:10:57.639Z,-9.24
2022-12-17T00:16:12.350Z,-9.13
2022-12-17T00:21:27.672Z,-9.13
2022-12-17T00:26:42.454Z,-9.37
2022-12-17T00:31:57.736Z,-9.12
2022-12-17T00:37:12.634Z,-9.11
2022-12-17T00:42:27.592Z,-9.18
2022-12-17T00:47:42.944Z,-9.47
2022-12-17T00:52:57.825Z,-9.32
2022-12-17T00:58:13.929Z,-9.19
2022-12-17T01:03:31.032Z,-9.05
2022-12-17T01:08:46.177Z,-8.99
2022-12-17T01:14:00.964Z,-9.23
2022-12-17T01:19:17.001Z,-9.20
2022-12-17T01:24:31.890Z,-9.13
2022-12-17T01:29:46.991Z,-9.05
2022-12-17T01:35:01.857Z,-8.94
2022-12-17T01:40:16.585Z,-8.85
2022-12-17T01:45:32.638Z,-9.23
2022-12-17T01:50:52.593Z,-9.34
2022-12-17T01:56:07.648Z,-9.26
2022-12-17T02:01:22.964Z,-9.12
2022-12-17T02:06:47.951Z,-9.30
2022-12-17T02:12:26.957Z,-9.41
2022-12-17T02:17:45.816Z,-9.07
2022-12-17T02:23:09.818Z,-8.80
2022-12-17T02:28:25.098Z,-8.68
2022-12-17T02:33:40.268Z,-8.58
2022-12-17T02:38:56.710Z,-8.48
2022-12-17T02:44:14.055Z,-8.40
2022-12-17T02:49:28.938Z,-8.46
2022-12-17T02:54:48.516Z,-8.54
2022-12-17T03:00:03.267Z,-8.32
2022-12-17T03:05:43.582Z,-8.06
2022-12-17T03:10:53.415Z,-7.90
2022-12-17T03:16:08.356Z,-7.85
2022-12-17T03:21:23.412Z,-7.80
2022-12-17T03:26:38.263Z,-7.69
2022-12-17T03:31:54.259Z,-7.50
2022-12-17T03:37:09.320Z,-7.34
2022-12-17T03:42:25.021Z,-7.17
2022-12-17T03:47:40.019Z,-7.20
2022-12-17T03:52:55.107Z,-7.28
2022-12-17T03:58:10.302Z,-7.30
2022-12-17T04:03:25.524Z,-7.33
2022-12-17T04:08:40.578Z,-7.32
2022-12-17T04:13:55.614Z,-7.21
2022-12-17T04:19:10.406Z,-7.09
2022-12-17T04:24:25.428Z,-7.19
2022-12-17T04:29:40.395Z,-7.18
2022-12-17T04:34:55.330Z,-7.20
2022-12-17T04:40:10.195Z,-7.11
2022-12-17T04:45:25.833Z,-6.87
2022-12-17T04:50:41.169Z,-6.70
2022-12-17T04:55:56.300Z,-6.71
2022-12-17T05:01:11.876Z,-6.66
2022-12-17T05:06:27.302Z,-6.59
2022-12-17T05:11:42.364Z,-6.53
2022-12-17T05:16:57.156Z,-6.48
2022-12-17T05:22:11.949Z,-6.56
2022-12-17T05:27:27.232Z,-6.47
2022-12-17T05:32:42.698Z,-6.60
2022-12-17T05:37:57.648Z,-6.65
2022-12-17T05:43:20.289Z,-6.57
2022-12-17T05:48:35.377Z,-6.50
2022-12-17T05:53:50.710Z,-6.57
2022-12-17T05:59:05.539Z,-6.63
2022-12-17T06:04:20.830Z,-6.47
2022-12-17T06:09:35.891Z,-6.36
2022-12-17T06:14:50.766Z,-6.54
2022-12-17T06:20:05.629Z,-6.40
2022-12-17T06:25:20.621Z,-6.46
2022-12-17T06:30:35.774Z,-6.41
2022-12-17T06:35:50.563Z,-6.43
2022-12-17T06:41:05.440Z,-6.44
2022-12-17T06:46:20.498Z,-6.37
2022-12-17T06:51:35.493Z,-6.32
2022-12-17T06:56:50.559Z,-6.44
2022-12-17T07:02:05.757Z,-6.38
2022-12-17T07:07:20.991Z,-6.74
2022-12-17T07:12:35.679Z,-6.91
2022-12-17T07:17:50.742Z,-6.88
2022-12-17T07:23:05.931Z,-6.98
2022-12-17T07:28:21.288Z,-7.13
2022-12-17T07:33:53.236Z,-7.29
2022-12-17T07:39:08.585Z,-7.47
2022-12-17T07:44:23.332Z,-7.53
2022-12-17T07:49:38.628Z,-7.50
2022-12-17T07:54:53.510Z,-7.54
2022-12-17T08:00:08.476Z,-7.43
2022-12-17T08:05:23.921Z,-7.42
2022-12-17T08:10:39.153Z,-7.37
2022-12-17T08:15:54.066Z,-7.18
2022-12-17T08:21:09.316Z,-7.02
2022-12-17T08:26:25.168Z,-6.82
2022-12-17T08:31:41.901Z,-6.80
2022-12-17T08:36:56.917Z,-6.74
2022-12-17T08:42:11.998Z,-6.82
2022-12-17T08:47:27.076Z,-6.79
2022-12-17T08:52:42.234Z,-6.99
2022-12-17T08:57:57.446Z,-7.06
2022-12-17T09:03:19.370Z,-7.26
2022-12-17T09:08:34.294Z,-7.40
2022-12-17T09:14:09.056Z,-7.53
2022-12-17T09:19:24.245Z,-7.49
2022-12-17T09:24:38.965Z,-7.23
2022-12-17T09:29:53.696Z,-7.46
2022-12-17T09:35:08.722Z,-7.47
2022-12-17T09:40:24.130Z,-7.15
2022-12-17T09:45:44.936Z,-6.86
2022-12-17T09:51:00.380Z,-6.82
2022-12-17T09:56:16.583Z,-6.71
2022-12-17T10:01:35.970Z,-6.42
2022-12-17T10:06:53.906Z,-6.48
2022-12-17T10:12:09.007Z,-6.53
2022-12-17T10:17:31.806Z,-6.54
2022-12-17T10:22:47.092Z,-6.15
2022-12-17T10:28:01.817Z,-6.67
2022-12-17T10:33:18.002Z,-6.99
2022-12-17T10:38:59.098Z,-6.88
2022-12-17T10:44:13.858Z,-6.82
2022-12-17T10:49:30.913Z,-6.65
2022-12-17T10:54:49.820Z,-6.64
2022-12-17T11:00:05.437Z,-6.84
2022-12-17T11:05:22.241Z,-6.94
2022-12-17T11:11:04.572Z,-6.92
2022-12-17T11:16:20.298Z,-6.70
2022-12-17T11:21:50.452Z,-6.64
2022-12-17T11:27:09.150Z,-6.50
2022-12-17T11:32:46.510Z,-6.42
2022-12-17T11:38:24.372Z,-6.48
2022-12-17T11:43:54.283Z,-6.07
2022-12-17T11:49:39.452Z,-6.43
2022-12-17T11:55:04.724Z,-6.43
2022-12-17T12:00:45.994Z,-6.61
2022-12-17T12:06:15.795Z,-6.63
2022-12-17T12:11:31.947Z,-6.72
2022-12-17T12:16:57.766Z,-6.60
2022-12-17T12:22:34.765Z,-6.38
2022-12-17T12:28:10.012Z,-6.17
2022-12-17T12:33:50.628Z,-5.93
2022-12-17T12:39:11.540Z,-6.22
2022-12-17T12:45:15.236Z,-6.42
2022-12-17T12:50:56.364Z,-6.62
2022-12-17T12:56:29.021Z,-6.76
2022-12-17T13:01:53.471Z,-6.91
2022-12-17T13:06:54.499Z,-6.91
2022-12-17T13:11:59.908Z,-6.79
2022-12-17T13:17:02.260Z,-6.62
2022-12-17T13:22:23.682Z,-6.42
2022-12-17T13:27:35.568Z,-6.32
2022-12-17T13:32:43.873Z,-6.42
2022-12-17T13:38:01.953Z,-6.51
2022-12-17T13:42:58.758Z,-6.58
2022-12-17T13:47:57.247Z,-6.67
2022-12-17T13:52:54.443Z,-6.67
2022-12-17T13:57:52.600Z,-6.79
2022-12-17T14:02:50.113Z,-6.86
2022-12-17T14:07:46.757Z,-6.91
2022-12-17T14:12:43.444Z,-6.94
2022-12-17T14:17:45.776Z,-6.97
2022-12-17T14:22:51.442Z,-7.15
2022-12-17T14:28:00.430Z,-7.25
2022-12-17T14:32:58.350Z,-7.21
2022-12-17T14:37:55.442Z,-7.24
2022-12-17T14:42:59.429Z,-7.29
2022-12-17T14:48:00.880Z,-7.47
2022-12-17T14:53:00.073Z,-7.46
2022-12-17T14:58:11.715Z,-7.52
2022-12-17T15:03:23.468Z,-7.70
2022-12-17T15:08:21.378Z,-7.58
2022-12-17T15:13:17.843Z,-7.53
2022-12-17T15:18:14.469Z,-7.58
2022-12-17T15:23:16.319Z,-7.87
2022-12-17T15:28:13.187Z,-8.18
2022-12-17T15:33:10.692Z,-8.10
2022-12-17T15:38:07.909Z,-8.08
2022-12-17T15:43:13.615Z,-8.20
2022-12-17T15:48:14.652Z,-8.40
2022-12-17T15:53:11.009Z,-8.53
2022-12-17T15:58:09.039Z,-8.81
2022-12-17T16:03:05.733Z,-8.81
2022-12-17T16:08:03.062Z,-8.77
2022-12-17T16:12:59.537Z,-8.80
2022-12-17T16:17:56.235Z,-8.75
2022-12-17T16:22:52.630Z,-8.79
2022-12-17T16:27:49.004Z,-8.84
2022-12-17T16:32:45.425Z,-8.98
2022-12-17T16:37:41.811Z,-9.41
2022-12-17T16:42:38.269Z,-9.25
2022-12-17T16:47:34.797Z,-9.19
2022-12-17T16:52:31.842Z,-9.23
2022-12-17T16:57:28.277Z,-9.28
2022-12-17T17:02:25.269Z,-9.48
2022-12-17T17:07:21.885Z,-9.34
2022-12-17T17:12:18.339Z,-9.55
2022-12-17T17:17:14.867Z,-9.93
2022-12-17T17:22:11.295Z,-9.91
2022-12-17T17:27:07.651Z,-10.03
2022-12-17T17:32:13.121Z,-9.93
2022-12-17T17:37:10.123Z,-10.20
2022-12-17T17:42:06.534Z,-10.07
2022-12-17T17:47:03.155Z,-10.11
2022-12-17T17:52:09.325Z,-10.07
2022-12-17T17:57:07.314Z,-10.18
2022-12-17T18:02:04.464Z,-10.63
2022-12-17T18:12:36.271Z,-10.62
2022-12-17T18:17:32.633Z,-10.56
2022-12-17T18:22:29.373Z,-10.40
2022-12-17T18:27:25.769Z,-10.30
2022-12-17T18:32:22.145Z,-10.33
2022-12-17T18:37:18.631Z,-10.40
2022-12-17T18:42:33.634Z,-10.93
2022-12-17T18:47:30.580Z,-11.21
2022-12-17T18:52:26.943Z,-11.11
2022-12-17T18:57:23.334Z,-10.86
2022-12-17T19:02:20.314Z,-10.70
2022-12-17T19:07:16.817Z,-10.74
2022-12-17T19:12:13.236Z,-10.79
2022-12-17T19:17:09.857Z,-10.74
2022-12-17T19:22:06.750Z,-10.80
2022-12-17T19:27:03.199Z,-10.96
2022-12-17T19:32:00.173Z,-11.01
2022-12-17T19:36:56.645Z,-11.12
2022-12-17T19:41:53.485Z,-11.10
2022-12-17T19:46:49.836Z,-10.93
2022-12-17T19:51:46.243Z,-10.94
2022-12-17T19:56:44.260Z,-10.84
2022-12-17T20:01:44.402Z,-11.04
2022-12-17T20:06:41.210Z,-10.97
2022-12-17T20:11:38.115Z,-10.90
2022-12-17T20:16:37.550Z,-11.01
2022-12-17T20:21:34.378Z,-11.04
2022-12-17T20:26:31.170Z,-10.88
2022-12-17T20:31:27.810Z,-10.72
2022-12-17T20:36:24.318Z,-10.62
2022-12-17T20:41:23.996Z,-10.83
2022-12-17T20:46:21.685Z,-10.76
2022-12-17T20:51:24.134Z,-10.67
2022-12-17T20:56:24.573Z,-10.82
2022-12-17T21:01:23.429Z,-10.76
2022-12-17T21:06:28.763Z,-10.67
2022-12-17T21:11:27.543Z,-10.78
2022-12-17T21:16:29.764Z,-10.58
2022-12-17T21:21:29.355Z,-10.61
2022-12-17T21:26:29.199Z,-10.48
2022-12-17T21:31:31.374Z,-10.34
2022-12-17T21:36:29.787Z,-10.36
2022-12-17T21:41:31.339Z,-10.37
2022-12-17T21:46:29.137Z,-10.32
2022-12-17T21:51:26.488Z,-10.40
2022-12-17T21:56:23.829Z,-10.36
2022-12-17T22:01:25.308Z,-10.58
2022-12-17T22:06:28.121Z,-10.41
2022-12-17T22:11:35.821Z,-10.39
2022-12-17T22:16:46.614Z,-10.42
2022-12-17T22:21:44.546Z,-10.27
2022-12-17T22:26:41.554Z,-10.20
2022-12-17T22:31:56.672Z,-10.12
2022-12-17T22:39:06.287Z,-10.15
2022-12-17T22:44:41.939Z,-10.17
2022-12-17T22:47:45.702Z,-10.27
2022-12-17T22:52:42.073Z,-10.39
2022-12-17T22:57:38.919Z,-10.30
2022-12-17T23:02:35.423Z,-10.18
2022-12-17T23:07:32.240Z,-10.37
2022-12-17T23:12:47.355Z,-10.43
2022-12-17T23:17:43.755Z,-10.43
2022-12-17T23:22:40.169Z,-10.35
2022-12-17T23:27:36.882Z,-10.39
2022-12-17T23:32:33.321Z,-10.39
2022-12-17T23:37:30.549Z,-10.32
2022-12-17T23:42:29.264Z,-10.24
2022-12-17T23:47:25.620Z,-10.33
2022-12-17T23:52:22.004Z,-10.58
2022-12-17T23:57:19.572Z,-10.42
